createdAt,value
2022-10-20T00:01:25.827Z,8.6
2022-10-20T00:06:27.998Z,10
2022-10-20T00:11:30.124Z,8.7
2022-10-20T00:16:32.303Z,9.8
2022-10-20T00:21:34.798Z,7.8
2022-10-20T00:26:36.967Z,8.4
2022-10-20T00:31:39.414Z,9.3
2022-10-20T00:36:41.786Z,9.8
2022-10-20T00:41:51.386Z,8.8
2022-10-20T00:46:53.407Z,9.6
2022-10-20T00:51:55.966Z,10.3
2022-10-20T00:56:57.973Z,9.1
2022-10-20T01:02:00.601Z,10
2022-10-20T01:07:02.958Z,8.6
2022-10-20T01:12:05.028Z,10.7
2022-10-20T01:17:07.062Z,9.2
2022-10-20T01:22:09.311Z,15.3
2022-10-20T01:27:09.694Z,8.8
2022-10-20T01:32:11.902Z,9.8
2022-10-20T01:37:23.383Z,7.4
2022-10-20T01:42:22.331Z,8.1
2022-10-20T01:47:24.776Z,8.6
2022-10-20T01:52:26.919Z,8.2
2022-10-20T01:57:29.072Z,8.9
2022-10-20T02:02:31.598Z,8.7
2022-10-20T02:07:34.598Z,9.6
2022-10-20T02:12:36.871Z,8.2
2022-10-20T02:17:40.277Z,8.6
2022-10-20T02:22:42.349Z,11.1
2022-10-20T02:27:44.483Z,10.3
2022-10-20T02:32:46.915Z,8.2
2022-10-20T02:37:49.014Z,10.4
2022-10-20T02:42:51.198Z,9
2022-10-20T02:47:53.373Z,9.6
2022-10-20T02:52:55.548Z,10.4
2022-10-20T02:57:57.752Z,17.5
2022-10-20T03:02:58.214Z,8.2
2022-10-20T03:08:00.382Z,8.9
2022-10-20T03:13:02.656Z,7.8
2022-10-20T03:18:05.371Z,10.9
2022-10-20T03:23:07.492Z,15.9
2022-10-20T03:28:09.626Z,10.5
2022-10-20T03:33:11.971Z,16.5
2022-10-20T03:38:14.242Z,12
2022-10-20T03:43:16.336Z,7.5
2022-10-20T03:48:18.820Z,12.9
2022-10-20T03:53:20.891Z,9.7
2022-10-20T03:58:23.148Z,9.8
2022-10-20T04:03:25.229Z,10.2
2022-10-20T04:08:27.433Z,10.3
2022-10-20T04:13:29.678Z,9.1
2022-10-20T04:18:31.890Z,7.9
2022-10-20T04:23:33.964Z,9.1
2022-10-20T04:28:36.327Z,11.9
2022-10-20T04:33:38.725Z,13.9
2022-10-20T04:38:41.458Z,12.1
2022-10-20T04:43:43.669Z,15.5
2022-10-20T04:48:45.822Z,12.6
2022-10-20T04:53:48.272Z,17.4
2022-10-20T04:58:50.639Z,13
2022-10-20T05:03:52.728Z,17.9
2022-10-20T05:08:55.059Z,16.7
2022-10-20T05:13:57.967Z,15.7
2022-10-20T05:19:00.141Z,38.8
2022-10-20T05:24:02.350Z,35.5
2022-10-20T05:29:04.539Z,46.2
2022-10-20T05:34:07.077Z,61.3
2022-10-20T05:39:09.214Z,39.5
2022-10-20T05:44:11.549Z,70.4
2022-10-20T05:49:14.116Z,61
2022-10-20T05:54:16.597Z,63.2
2022-10-20T05:59:18.773Z,78.3
2022-10-20T06:04:22.385Z,44
2022-10-20T06:09:25.048Z,45.6
2022-10-20T06:14:27.719Z,42
2022-10-20T06:19:30.160Z,35.5
2022-10-20T06:24:32.248Z,31.9
2022-10-20T06:29:34.578Z,26.5
2022-10-20T06:34:36.602Z,26.8
2022-10-20T06:39:38.557Z,32.9
2022-10-20T06:44:40.660Z,20.6
2022-10-20T06:49:44.298Z,10.3
2022-10-20T06:54:46.654Z,11.6
2022-10-20T06:59:48.819Z,9
2022-10-20T07:04:50.775Z,8.4
2022-10-20T07:09:52.917Z,7.2
2022-10-20T07:14:55.098Z,5.1
2022-10-20T07:19:57.140Z,2.6
2022-10-20T07:24:59.146Z,3.6
2022-10-20T07:30:01.384Z,3.1
2022-10-20T07:35:03.541Z,2.8
2022-10-20T07:40:05.509Z,12.3
2022-10-20T07:45:08.195Z,2.6
2022-10-20T07:50:10.173Z,4.1
2022-10-20T07:55:32.180Z,3.2
2022-10-20T08:00:21.000Z,4.6
2022-10-20T08:05:22.985Z,2.6
2022-10-20T08:10:25.087Z,2.5
2022-10-20T08:15:31.411Z,4.5
2022-10-20T08:20:37.640Z,3.3
2022-10-20T08:25:41.224Z,3.2
2022-10-20T08:30:43.316Z,14.3
2022-10-20T08:35:46.281Z,2.7
2022-10-20T08:40:48.523Z,3.1
2022-10-20T08:45:51.433Z,6.1
2022-10-20T08:50:51.777Z,4.5
2022-10-20T08:55:53.996Z,2.5
2022-10-20T09:00:57.179Z,4.1
2022-10-20T09:05:59.179Z,3.1
2022-10-20T09:11:01.336Z,2
2022-10-20T09:16:03.431Z,6.3
2022-10-20T09:21:05.563Z,4.2
2022-10-20T09:26:07.932Z,4.2
2022-10-20T09:31:17.258Z,3.2
2022-10-20T09:36:19.630Z,4.7
2022-10-20T09:41:21.858Z,3.7
2022-10-20T09:46:24.097Z,4
2022-10-20T09:51:26.125Z,3.6
2022-10-20T09:56:28.209Z,3.4
2022-10-20T10:01:30.375Z,2.3
2022-10-20T10:06:32.597Z,4
2022-10-20T10:11:34.832Z,2.8
2022-10-20T10:16:37.131Z,4.9
2022-10-20T10:21:39.302Z,3.5
2022-10-20T10:26:43.481Z,5.7
2022-10-20T10:31:45.529Z,3.7
2022-10-20T10:36:47.719Z,11.5
2022-10-20T10:41:50.280Z,6.2
2022-10-20T10:46:52.656Z,2.4
2022-10-20T10:51:55.013Z,4.6
2022-10-20T10:56:56.979Z,3.2
2022-10-20T11:01:59.106Z,5.9
2022-10-20T11:07:01.168Z,3.9
2022-10-20T11:12:03.368Z,6.7
2022-10-20T11:17:05.543Z,4.7
2022-10-20T11:22:08.461Z,2.8
2022-10-20T11:27:16.436Z,3
2022-10-20T11:32:18.513Z,5
2022-10-20T11:37:20.525Z,8.9
2022-10-20T11:42:22.696Z,5.3
2022-10-20T11:47:24.991Z,16.8
2022-10-20T11:52:27.253Z,7.2
2022-10-20T11:57:29.780Z,2.6
2022-10-20T12:02:31.737Z,3.7
2022-10-20T12:07:34.644Z,4.4
2022-10-20T12:12:36.935Z,2.7
2022-10-20T12:17:40.281Z,3.1
2022-10-20T12:22:42.514Z,6.6
2022-10-20T12:27:44.549Z,3.6
2022-10-20T12:32:46.705Z,3.4
2022-10-20T12:37:48.952Z,5.6
2022-10-20T12:42:51.374Z,5.2
2022-10-20T12:47:53.404Z,4.3
2022-10-20T12:52:55.446Z,4
2022-10-20T12:57:57.552Z,4.9
2022-10-20T13:02:59.624Z,5.3
2022-10-20T13:08:01.638Z,9.1
2022-10-20T13:13:04.326Z,4
2022-10-20T13:18:06.374Z,3.4
2022-10-20T13:23:08.578Z,3.1
2022-10-20T13:28:10.746Z,9
2022-10-20T13:33:32.955Z,4.1
2022-10-20T13:38:16.725Z,4.8
2022-10-20T13:43:18.702Z,4.8
2022-10-20T13:48:20.708Z,6.2
2022-10-20T13:53:23.191Z,5.2
2022-10-20T13:58:25.292Z,5
2022-10-20T14:03:27.546Z,2.8
2022-10-20T14:08:28.576Z,5.2
2022-10-20T14:13:31.335Z,4.4
2022-10-20T14:18:33.452Z,2.8
2022-10-20T14:23:36.105Z,3.7
2022-10-20T14:28:38.367Z,6
2022-10-20T14:33:40.374Z,3.5
2022-10-20T14:38:42.648Z,4
2022-10-20T14:43:44.668Z,7.1
2022-10-20T14:48:46.809Z,4.4
2022-10-20T14:53:48.853Z,8.7
2022-10-20T14:58:50.814Z,5.2
2022-10-20T15:03:53.105Z,8.3
2022-10-20T15:08:56.098Z,36.1
2022-10-20T15:13:58.740Z,4.5
2022-10-20T15:19:00.779Z,3.6
2022-10-20T15:24:02.703Z,7.3
2022-10-20T15:29:04.732Z,5.3
2022-10-20T15:34:06.717Z,5.5
2022-10-20T15:39:09.576Z,6.8
2022-10-20T15:44:11.595Z,10.1
2022-10-20T15:49:16.395Z,9.2
2022-10-20T15:54:18.825Z,12.1
2022-10-20T15:59:21.026Z,11.5
2022-10-20T16:04:23.305Z,11.4
2022-10-20T16:09:25.646Z,16
2022-10-20T16:14:28.299Z,19
2022-10-20T16:19:30.412Z,25.3
2022-10-20T16:24:32.406Z,17.2
2022-10-20T16:29:34.628Z,25.4
2022-10-20T16:34:37.121Z,32.4
2022-10-20T16:39:39.227Z,27.7
2022-10-20T16:44:41.563Z,19.9
2022-10-20T16:49:43.577Z,19.5
2022-10-20T16:54:45.624Z,13.4
2022-10-20T16:59:47.645Z,15.4
2022-10-20T17:04:48.854Z,21.5
2022-10-20T17:09:51.027Z,29.9
2022-10-20T17:14:53.186Z,36.8
2022-10-20T17:19:55.212Z,31
2022-10-20T17:24:57.494Z,42.3
2022-10-20T17:29:59.656Z,25.6
2022-10-20T17:35:02.007Z,24.9
2022-10-20T17:40:04.190Z,26.5
2022-10-20T17:45:06.415Z,28.4
2022-10-20T17:55:11.104Z,31
2022-10-20T18:00:19.289Z,25.2
2022-10-20T18:05:17.467Z,16
2022-10-20T18:15:21.638Z,20.4
2022-10-20T18:20:23.713Z,20.2
2022-10-20T18:25:27.242Z,23.4
2022-10-20T18:30:29.715Z,31
2022-10-20T18:35:31.750Z,28.4
2022-10-20T18:40:33.897Z,25
2022-10-20T18:45:36.283Z,23.2
2022-10-20T18:50:38.567Z,27.3
2022-10-20T18:55:40.740Z,22.3
2022-10-20T19:00:43.093Z,19.3
2022-10-20T19:05:45.997Z,17.3
2022-10-20T19:10:48.449Z,14.7
2022-10-20T19:15:50.504Z,14.6
2022-10-20T19:20:52.566Z,14.9
2022-10-20T19:25:58.501Z,13.7
2022-10-20T19:31:01.084Z,13
2022-10-20T19:36:03.482Z,13.3
2022-10-20T19:41:06.495Z,13.1
2022-10-20T19:46:09.775Z,11.2
2022-10-20T19:51:11.850Z,10.2
2022-10-20T19:56:13.897Z,8.3
2022-10-20T20:01:16.183Z,8.4
2022-10-20T20:06:18.870Z,8.2
2022-10-20T20:11:20.954Z,7.8
2022-10-20T20:16:23.934Z,8.7
2022-10-20T20:21:26.417Z,8.1
2022-10-20T20:26:28.813Z,9.9
2022-10-20T20:31:30.965Z,7.7
2022-10-20T20:36:33.293Z,7
2022-10-20T20:41:35.455Z,9.1
2022-10-20T20:46:37.795Z,8.4
2022-10-20T20:51:40.806Z,7.3
2022-10-20T20:56:42.931Z,9.8
2022-10-20T21:01:45.808Z,8.1
2022-10-20T21:07:01.533Z,8.4
2022-10-20T21:11:54.687Z,8.8
2022-10-20T21:16:56.937Z,10.2
2022-10-20T21:21:58.999Z,7.5
2022-10-20T21:27:01.539Z,7.1
2022-10-20T21:32:03.761Z,8.1
2022-10-20T21:37:04.717Z,9.5
2022-10-20T21:42:06.935Z,7.9
2022-10-20T21:47:09.117Z,7
2022-10-20T21:52:11.238Z,6.9
2022-10-20T21:57:13.760Z,7.7
2022-10-20T22:02:15.760Z,9.1
2022-10-20T22:07:18.001Z,7.9
2022-10-20T22:12:20.235Z,9
2022-10-20T22:17:22.312Z,6.9
2022-10-20T22:22:24.412Z,8
2022-10-20T22:27:41.632Z,8.3
2022-10-20T22:32:34.635Z,7.8
2022-10-20T22:37:38.356Z,6.7
2022-10-20T22:42:41.204Z,6.5
2022-10-20T22:47:43.708Z,7.6
2022-10-20T22:52:45.792Z,7.6
2022-10-20T22:57:47.979Z,6.4
2022-10-20T23:02:50.323Z,7.3
2022-10-20T23:07:52.681Z,6.4
2022-10-20T23:12:55.455Z,6.2
2022-10-20T23:17:57.646Z,6.4
2022-10-20T23:23:00.098Z,7
2022-10-20T23:28:02.443Z,7.5
2022-10-20T23:33:04.614Z,7.3
2022-10-20T23:38:06.878Z,6.5
2022-10-20T23:43:09.158Z,7.9
2022-10-20T23:48:11.550Z,6.7
2022-10-20T23:53:14.298Z,6.7
2022-10-20T23:58:16.690Z,6.1
